Time;durP1;ratioP1;P1;durP2;ratioP2;P2;SDS_P1;SDS_P2;PMS_P1;PMS_P2;Temp;Humidity;BMP_temperature;BMP_pressure;BME280_temperature;BME280_humidity;BME280_pressure;Samples;Min_cycle;Max_cycle;Signal;HPM_P1;HPM_P2
2021/01/14 00:00:40;;;;;;;;;;;;;;;-3.40;96.53;99519.92;1872181;75;20162;-41
2021/01/14 00:03:08;;;;;;;;;;;;;;;-3.42;96.37;99523.77;1877574;75;20389;-40
2021/01/14 00:05:36;;;;;;;;;;;;;;;-3.43;96.29;99519.47;1871689;75;20154;-41
2021/01/14 00:08:05;;;;;;;;;;;;;;;-3.47;96.03;99525.76;1900608;75;20199;-41
2021/01/14 00:10:33;;;;;;;;;;;;;;;-3.48;95.81;99537.73;1902461;75;20286;-42
2021/01/14 00:13:01;;;;;;;;;;;;;;;-3.49;95.64;99533.85;1902343;75;20262;-41
2021/01/14 00:15:30;;;;;;;;;;;;;;;-3.49;95.58;99515.92;1901980;75;20222;-41
2021/01/14 00:17:58;;;;;;;;;;;;;;;-3.48;95.35;99538.15;1901909;75;20132;-41
2021/01/14 00:20:27;;;;;;;;;;;;;;;-3.48;95.19;99534.30;1902341;75;20120;-42
2021/01/14 00:22:55;;;;;;;;;;;;;;;-3.50;95.21;99539.80;1902302;75;20159;-41
2021/01/14 00:25:23;;;;;;;;;;;;;;;-3.51;95.09;99532.53;1867236;77;20270;-42
2021/01/14 00:27:51;;;;;;;;;;;;;;;-3.49;95.04;99538.56;1867583;77;20136;-40
2021/01/14 00:30:27;;;;;;;;;;;;;;;-3.48;95.00;99527.90;1867483;77;20426;-41
2021/01/14 00:32:56;;;;;;;;;;;;;;;-3.51;94.92;99527.41;1867733;77;20235;-41
2021/01/14 00:35:28;;;;;;;;;;;;;;;-3.49;95.06;99530.88;1867189;76;20160;-42
2021/01/14 00:37:56;;;;;;;;;;;;;;;-3.46;95.09;99538.61;1867568;77;20248;-42
2021/01/14 00:40:27;;;;;;;;;;;;;;;-3.44;95.05;99533.52;1867178;77;20251;-41
2021/01/14 00:42:59;;;;;;;;;;;;;;;-3.46;94.87;99537.33;1867668;77;20132;-42
2021/01/14 00:45:28;;;;;;;;;;;;;;;-3.50;94.75;99543.65;1867193;77;20172;-40
2021/01/14 00:47:56;;;;;;;;;;;;;;;-3.49;94.78;99548.81;1867613;77;20382;-42
2021/01/14 00:50:25;;;;;;;;;;;;;;;-3.45;94.80;99550.59;1867477;77;20212;-42
2021/01/14 00:52:53;;;;;;;;;;;;;;;-3.49;94.44;99555.22;1867528;75;20384;-41
2021/01/14 00:55:21;;;;;;;;;;;;;;;-3.54;94.26;99542.70;1867409;77;20385;-42
2021/01/14 00:57:48;;;;;;;;;;;;;;;-3.57;94.15;99543.94;1867536;77;20329;-41
2021/01/14 01:00:18;;;;;;;;;;;;;;;-3.61;93.88;99557.08;1867159;76;20491;-40
2021/01/14 01:02:51;;;;;;;;;;;;;;;-3.63;93.81;99556.61;1867323;75;20456;-40
2021/01/14 01:05:19;;;;;;;;;;;;;;;-3.65;93.81;99562.97;1867119;77;20410;-40
2021/01/14 01:07:49;;;;;;;;;;;;;;;-3.71;93.58;99565.41;1867638;77;20140;-42
2021/01/14 01:10:17;;;;;;;;;;;;;;;-3.75;93.63;99562.34;1867205;77;20133;-42
2021/01/14 01:12:50;;;;;;;;;;;;;;;-3.78;93.71;99563.54;1867264;77;20204;-41
2021/01/14 01:15:18;;;;;;;;;;;;;;;-3.79;93.78;99566.92;1867613;77;20145;-40
2021/01/14 01:17:46;;;;;;;;;;;;;;;-3.81;93.81;99575.42;1867568;77;20270;-40
2021/01/14 01:20:15;;;;;;;;;;;;;;;-3.85;93.71;99586.41;1867359;76;20199;-42
2021/01/14 01:22:42;;;;;;;;;;;;;;;-3.91;93.57;99578.17;1867236;77;20136;-39
2021/01/14 01:25:12;;;;;;;;;;;;;;;-3.97;93.63;99586.13;1867200;77;20136;-41
2021/01/14 01:27:40;;;;;;;;;;;;;;;-4.01;93.63;99592.89;1867588;77;20243;-40
2021/01/14 01:30:10;;;;;;;;;;;;;;;-4.06;93.62;99600.84;1867259;76;20314;-41
2021/01/14 01:32:39;;;;;;;;;;;;;;;-4.11;93.74;99595.63;1867254;77;20247;-41
2021/01/14 01:35:08;;;;;;;;;;;;;;;-4.18;93.69;99596.72;1867122;76;20235;-40
2021/01/14 01:37:36;;;;;;;;;;;;;;;-4.23;93.53;99602.15;1846409;77;20160;-43
2021/01/14 01:40:06;;;;;;;;;;;;;;;-4.27;93.48;99614.42;1867025;76;20176;-42
2021/01/14 01:42:34;;;;;;;;;;;;;;;-4.32;93.39;99621.97;1867437;76;20199;-42
2021/01/14 01:45:02;;;;;;;;;;;;;;;-4.36;93.36;99616.33;1867167;77;20227;-40
2021/01/14 01:47:34;;;;;;;;;;;;;;;-4.41;93.16;99621.75;1886947;75;20191;-40
2021/01/14 01:50:04;;;;;;;;;;;;;;;-4.48;92.96;99623.28;1845404;77;20160;-41
2021/01/14 01:52:33;;;;;;;;;;;;;;;-4.50;92.78;99635.16;1867520;77;20183;-41
2021/01/14 01:55:01;;;;;;;;;;;;;;;-4.55;92.52;99648.25;1867162;77;20390;-41
2021/01/14 01:57:29;;;;;;;;;;;;;;;-4.56;92.48;99645.23;1882966;75;20171;-40
2021/01/14 01:59:57;;;;;;;;;;;;;;;-4.56;92.39;99643.95;1902553;75;20231;-41
2021/01/14 02:02:29;;;;;;;;;;;;;;;-4.57;92.33;99642.63;1902503;75;20262;-41
2021/01/14 02:04:57;;;;;;;;;;;;;;;-4.60;92.30;99652.38;1902275;75;20243;-41
2021/01/14 02:07:28;;;;;;;;;;;;;;;-4.58;92.30;99660.94;1889766;75;20128;-40
2021/01/14 02:09:56;;;;;;;;;;;;;;;-4.58;92.14;99643.03;1902158;75;20132;-40
2021/01/14 02:12:33;;;;;;;;;;;;;;;-4.60;91.89;99662.61;1902201;75;20203;-41
2021/01/14 02:15:00;;;;;;;;;;;;;;;-4.63;91.82;99652.28;1901981;75;20162;-40
2021/01/14 02:17:28;;;;;;;;;;;;;;;-4.64;91.82;99642.01;1891397;75;20155;-41
2021/01/14 02:19:57;;;;;;;;;;;;;;;-4.64;91.94;99646.72;1876785;75;20118;-40
2021/01/14 02:22:27;;;;;;;;;;;;;;;-4.60;92.02;99638.73;1879797;75;20217;-41
2021/01/14 02:26:50;;;;;;;;;;;;;;;-4.49;92.07;99644.57;1913926;74;20462;-40
2021/01/14 02:29:18;;;;;;;;;;;;;;;-4.51;92.00;99639.81;1835443;75;20253;-40
2021/01/14 02:31:46;;;;;;;;;;;;;;;-4.52;91.74;99635.52;1871183;75;20146;-41
2021/01/14 02:34:14;;;;;;;;;;;;;;;-4.50;91.54;99641.97;1868103;77;20164;-40
2021/01/14 02:36:42;;;;;;;;;;;;;;;-4.49;91.16;99627.08;1875541;75;20239;-41
2021/01/14 02:39:10;;;;;;;;;;;;;;;-4.47;90.89;99623.75;1876814;75;20135;-41
2021/01/14 02:41:38;;;;;;;;;;;;;;;-4.45;90.87;99627.59;1868724;75;20130;-41
2021/01/14 02:44:06;;;;;;;;;;;;;;;-4.40;90.96;99632.85;1887713;75;20174;-41
2021/01/14 02:46:34;;;;;;;;;;;;;;;-4.37;90.79;99638.03;1867845;77;20168;-42
2021/01/14 02:49:09;;;;;;;;;;;;;;;-4.37;90.68;99643.14;1868237;77;20384;-42
2021/01/14 02:51:44;;;;;;;;;;;;;;;-4.36;90.49;99641.05;1867930;77;20165;-42
2021/01/14 02:54:12;;;;;;;;;;;;;;;-4.35;90.51;99645.34;1876622;75;20134;-41
2021/01/14 02:56:41;;;;;;;;;;;;;;;-4.35;90.37;99653.02;1868114;77;20193;-40
2021/01/14 02:59:10;;;;;;;;;;;;;;;-4.32;90.41;99644.13;1868201;77;20119;-40
2021/01/14 03:01:38;;;;;;;;;;;;;;;-4.31;90.42;99644.16;1868136;77;20131;-41
2021/01/14 03:04:05;;;;;;;;;;;;;;;-4.30;90.47;99636.08;1868073;77;20122;-41
2021/01/14 03:06:33;;;;;;;;;;;;;;;-4.28;90.55;99666.41;1867949;77;20292;-42
2021/01/14 03:09:01;;;;;;;;;;;;;;;-4.28;90.66;99666.00;1868268;77;20131;-41
2021/01/14 03:11:32;;;;;;;;;;;;;;;-4.25;90.74;99672.87;1867961;77;20217;-41
2021/01/14 03:14:00;;;;;;;;;;;;;;;-4.24;90.80;99689.55;1868155;77;20134;-42
2021/01/14 03:16:27;;;;;;;;;;;;;;;-4.23;90.83;99678.91;1867978;77;20228;-41
2021/01/14 03:18:55;;;;;;;;;;;;;;;-4.20;90.86;99672.61;1868139;77;20158;-40
2021/01/14 03:21:24;;;;;;;;;;;;;;;-4.20;90.76;99682.39;1867804;77;20154;-42
2021/01/14 03:23:52;;;;;;;;;;;;;;;-4.17;90.87;99685.45;1867953;77;20229;-41
2021/01/14 03:26:20;;;;;;;;;;;;;;;-4.18;90.84;99696.52;1868057;77;20268;-41
2021/01/14 03:28:48;;;;;;;;;;;;;;;-4.15;90.84;99700.45;1868247;77;20157;-41
2021/01/14 03:31:16;;;;;;;;;;;;;;;-4.15;90.73;99701.73;1868272;77;20134;-42
2021/01/14 03:33:45;;;;;;;;;;;;;;;-4.14;90.76;99702.19;1873405;75;20197;-42
2021/01/14 03:36:18;;;;;;;;;;;;;;;-4.14;90.82;99699.22;1867957;75;20375;-41
2021/01/14 03:38:46;;;;;;;;;;;;;;;-4.14;90.86;99701.77;1867327;77;20121;-41
2021/01/14 03:41:15;;;;;;;;;;;;;;;-4.12;91.09;99702.66;1867481;77;20494;-41
2021/01/14 03:43:43;;;;;;;;;;;;;;;-4.12;91.13;99706.49;1867544;77;20180;-41
2021/01/14 03:46:16;;;;;;;;;;;;;;;-4.08;91.27;99710.88;1867205;77;20251;-41
2021/01/14 03:48:45;;;;;;;;;;;;;;;-4.08;91.27;99713.45;1867515;77;20532;-41
2021/01/14 03:51:19;;;;;;;;;;;;;;;-4.08;91.28;99716.00;1867279;77;20141;-41
2021/01/14 03:53:48;;;;;;;;;;;;;;;-4.07;91.29;99710.47;1867163;77;20140;-41
2021/01/14 03:56:15;;;;;;;;;;;;;;;-4.07;91.33;99704.08;1868433;75;20245;-40
2021/01/14 03:58:43;;;;;;;;;;;;;;;-4.07;91.24;99724.11;1867226;77;20142;-41
2021/01/14 04:01:11;;;;;;;;;;;;;;;-4.07;91.12;99713.87;1890624;75;20144;-42
2021/01/14 04:03:39;;;;;;;;;;;;;;;-4.06;91.13;99713.45;1902152;75;20179;-42
2021/01/14 04:06:08;;;;;;;;;;;;;;;-4.05;91.09;99726.71;1902352;75;20258;-40
2021/01/14 04:08:36;;;;;;;;;;;;;;;-4.06;91.01;99719.86;1887791;75;20173;-41
2021/01/14 04:11:04;;;;;;;;;;;;;;;-4.05;91.03;99744.63;1871630;75;20201;-40
2021/01/14 04:13:33;;;;;;;;;;;;;;;-4.04;91.08;99739.55;1871157;75;20134;-42
2021/01/14 04:16:01;;;;;;;;;;;;;;;-4.05;90.98;99751.90;1867501;77;20147;-41
2021/01/14 04:18:29;;;;;;;;;;;;;;;-4.05;90.95;99757.02;1867476;77;20174;-42
2021/01/14 04:20:56;;;;;;;;;;;;;;;-4.02;91.00;99753.27;1867248;77;20399;-41
2021/01/14 04:23:24;;;;;;;;;;;;;;;-3.99;91.07;99749.91;1869222;75;20265;-42
2021/01/14 04:25:55;;;;;;;;;;;;;;;-3.98;91.04;99750.36;1868453;75;20178;-44
2021/01/14 04:28:23;;;;;;;;;;;;;;;-4.00;90.93;99744.77;1867443;77;20343;-41
2021/01/14 04:30:52;;;;;;;;;;;;;;;-4.03;90.93;99743.86;1867166;77;20123;-42
2021/01/14 04:33:19;;;;;;;;;;;;;;;-4.02;90.92;99734.48;1867213;77;20131;-44
2021/01/14 04:35:53;;;;;;;;;;;;;;;-4.02;90.89;99729.37;1867534;77;20313;-41
2021/01/14 04:38:22;;;;;;;;;;;;;;;-4.00;90.97;99743.05;1867405;77;20146;-43
2021/01/14 04:41:00;;;;;;;;;;;;;;;-3.98;91.01;99745.25;1867571;75;20162;-43
2021/01/14 04:43:31;;;;;;;;;;;;;;;-3.98;90.99;99754.61;1875565;75;20154;-44
2021/01/14 04:46:06;;;;;;;;;;;;;;;-3.95;90.98;99760.70;1867360;77;20583;-42
2021/01/14 04:48:42;;;;;;;;;;;;;;;-3.95;90.99;99766.23;1867204;77;20263;-42
2021/01/14 04:51:13;;;;;;;;;;;;;;;-3.96;90.89;99762.80;1874153;75;20176;-44
2021/01/14 04:53:42;;;;;;;;;;;;;;;-3.99;90.81;99757.59;1881858;75;20517;-43
2021/01/14 04:56:11;;;;;;;;;;;;;;;-4.00;90.81;99760.97;1868743;75;20463;-41
2021/01/14 04:58:40;;;;;;;;;;;;;;;-4.00;90.82;99759.69;1877129;75;21023;-43
2021/01/14 05:01:21;;;;;;;;;;;;;;;-4.00;90.82;99768.64;1869611;75;20191;-42
2021/01/14 05:03:50;;;;;;;;;;;;;;;-4.00;90.81;99781.44;1867387;77;20200;-44
2021/01/14 05:06:19;;;;;;;;;;;;;;;-3.97;90.94;99794.75;1881921;75;20167;-41
2021/01/14 05:08:48;;;;;;;;;;;;;;;-3.95;90.95;99795.26;1867519;75;20221;-43
2021/01/14 05:11:18;;;;;;;;;;;;;;;-3.95;90.94;99789.27;1871983;75;20215;-43
2021/01/14 05:13:46;;;;;;;;;;;;;;;-3.93;91.02;99768.39;1895027;75;20262;-43
2021/01/14 05:16:14;;;;;;;;;;;;;;;-3.92;91.05;99784.21;1870260;75;20277;-42
2021/01/14 05:18:41;;;;;;;;;;;;;;;-3.90;91.10;99779.59;1866941;77;20190;-43
2021/01/14 05:21:09;;;;;;;;;;;;;;;-3.88;91.07;99779.64;1867378;75;20265;-43
2021/01/14 05:23:37;;;;;;;;;;;;;;;-3.89;91.04;99772.37;1867909;75;20187;-43
2021/01/14 05:26:06;;;;;;;;;;;;;;;-3.90;91.03;99766.80;1867218;75;20381;-42
2021/01/14 05:28:35;;;;;;;;;;;;;;;-3.91;91.05;99772.73;1867483;75;20193;-42
2021/01/14 05:31:15;;;;;;;;;;;;;;;-3.92;91.11;99782.52;1867232;75;20846;-42
2021/01/14 05:33:59;;;;;;;;;;;;;;;-3.91;91.25;99794.50;1872749;75;20229;-42
2021/01/14 05:36:49;;;;;;;;;;;;;;;-3.88;91.28;99795.87;1872264;75;20118;-42
2021/01/14 05:39:18;;;;;;;;;;;;;;;-3.88;91.29;99797.16;1870162;75;20206;-43
2021/01/14 05:41:48;;;;;;;;;;;;;;;-3.89;91.28;99799.66;1858140;75;20301;-43
2021/01/14 05:44:16;;;;;;;;;;;;;;;-3.89;91.26;99794.55;1868680;75;20134;-43
2021/01/14 05:46:44;;;;;;;;;;;;;;;-3.90;91.34;99794.95;1878665;75;20192;-42
2021/01/14 05:49:13;;;;;;;;;;;;;;;-3.90;91.43;99806.48;1868408;75;20441;-43
2021/01/14 05:51:41;;;;;;;;;;;;;;;-3.90;91.58;99801.36;1856887;75;20242;-44
2021/01/14 05:54:10;;;;;;;;;;;;;;;-3.88;91.79;99806.52;1866512;75;20175;-41
2021/01/14 05:56:46;;;;;;;;;;;;;;;-3.89;91.83;99795.83;1871816;75;20158;-43
2021/01/14 05:59:16;;;;;;;;;;;;;;;-3.94;91.67;99795.72;1870658;75;20326;-43
2021/01/14 06:02:00;;;;;;;;;;;;;;;-3.98;91.52;99796.84;1870778;75;20196;-44
2021/01/14 06:04:28;;;;;;;;;;;;;;;-4.02;91.40;99804.88;1868032;75;20233;-45
2021/01/14 06:07:02;;;;;;;;;;;;;;;-4.02;91.58;99803.19;1884268;75;20164;-42
2021/01/14 06:09:27;;;;;;;;;;;;;;;-3.98;91.63;99809.65;1872223;75;20383;-42
2021/01/14 06:12:07;;;;;;;;;;;;;;;-3.97;91.60;99812.26;1871766;75;20217;-42
2021/01/14 06:14:36;;;;;;;;;;;;;;;-3.97;91.57;99809.70;1867676;75;20589;-44
2021/01/14 06:17:05;;;;;;;;;;;;;;;-3.93;91.63;99820.87;1872545;75;20560;-42
2021/01/14 06:19:33;;;;;;;;;;;;;;;-3.93;91.63;99819.18;1867592;75;20217;-44
2021/01/14 06:22:01;;;;;;;;;;;;;;;-3.90;91.68;99825.67;1867524;75;20255;-44
2021/01/14 06:26:50;;;;;;;;;;;;;;;-3.79;91.68;99816.58;1905905;74;20201;-44
2021/01/14 06:29:23;;;;;;;;;;;;;;;-3.81;91.69;99815.69;1862839;75;20182;-44
2021/01/14 06:31:50;;;;;;;;;;;;;;;-3.81;91.73;99813.55;1881995;75;20224;-45
2021/01/14 06:34:21;;;;;;;;;;;;;;;-3.81;91.75;99818.66;1869861;75;20121;-43
2021/01/14 06:36:49;;;;;;;;;;;;;;;-3.80;91.79;99823.80;1875803;75;20206;-43
2021/01/14 06:39:19;;;;;;;;;;;;;;;-3.80;91.91;99821.23;1877303;75;20640;-44
2021/01/14 06:41:49;;;;;;;;;;;;;;;-3.77;92.01;99822.61;1868333;75;20199;-44
2021/01/14 06:44:16;;;;;;;;;;;;;;;-3.72;92.12;99826.56;1820177;75;20452;-44
2021/01/14 06:46:44;;;;;;;;;;;;;;;-3.69;92.20;99837.77;1867610;75;20489;-44
2021/01/14 06:49:14;;;;;;;;;;;;;;;-3.69;92.26;99840.75;1849398;75;20289;-43
2021/01/14 06:51:52;;;;;;;;;;;;;;;-3.65;92.29;99837.42;1877943;75;20181;-44
2021/01/14 06:54:21;;;;;;;;;;;;;;;-3.62;92.27;99828.55;1875731;75;20194;-46
2021/01/14 06:56:57;;;;;;;;;;;;;;;-3.63;92.19;99822.97;1870674;75;20559;-45
2021/01/14 06:59:25;;;;;;;;;;;;;;;-3.64;92.29;99825.95;1872851;75;20295;-44
2021/01/14 07:02:09;;;;;;;;;;;;;;;-3.62;92.36;99825.99;1869108;75;20170;-47
2021/01/14 07:04:46;;;;;;;;;;;;;;;-3.63;92.31;99821.28;1869889;75;20168;-46
2021/01/14 07:07:30;;;;;;;;;;;;;;;-3.64;92.37;99814.83;1870508;75;20466;-48
2021/01/14 07:10:04;;;;;;;;;;;;;;;-3.58;92.47;99819.24;1867828;75;20172;-47
2021/01/14 07:12:37;;;;;;;;;;;;;;;-3.57;92.50;99820.98;1872453;75;20207;-45
2021/01/14 07:15:12;;;;;;;;;;;;;;;-3.54;92.64;99824.91;1863763;75;20314;-47
2021/01/14 07:17:42;;;;;;;;;;;;;;;-3.52;92.57;99820.27;1878554;75;20185;-44
2021/01/14 07:20:15;;;;;;;;;;;;;;;-3.51;92.63;99819.84;1868257;75;20136;-45
2021/01/14 07:22:57;;;;;;;;;;;;;;;-3.52;92.51;99825.38;1867293;75;20205;-44
2021/01/14 07:25:25;;;;;;;;;;;;;;;-3.52;92.44;99825.80;1870141;75;20176;-44
2021/01/14 07:27:53;;;;;;;;;;;;;;;-3.50;92.48;99822.87;1869605;75;20186;-43
2021/01/14 07:30:21;;;;;;;;;;;;;;;-3.51;92.40;99826.25;1880750;75;20391;-44
2021/01/14 07:33:06;;;;;;;;;;;;;;;-3.49;92.45;99837.42;1870527;75;20174;-46
2021/01/14 07:35:40;;;;;;;;;;;;;;;-3.40;92.48;99842.75;1883159;75;20184;-45
2021/01/14 07:38:12;;;;;;;;;;;;;;;-3.35;92.29;99847.60;1874289;75;20177;-45
2021/01/14 07:40:44;;;;;;;;;;;;;;;-3.34;92.06;99846.75;1837687;77;20166;-45
2021/01/14 07:43:14;;;;;;;;;;;;;;;-3.40;91.82;99852.59;1876809;75;20288;-45
2021/01/14 07:45:44;;;;;;;;;;;;;;;-3.39;91.77;99858.17;1871117;75;20207;-45
2021/01/14 07:48:20;;;;;;;;;;;;;;;-3.32;91.79;99856.63;1885538;75;20184;-46
2021/01/14 07:50:56;;;;;;;;;;;;;;;-3.29;91.80;99859.28;1883971;75;20194;-45
2021/01/14 07:53:24;;;;;;;;;;;;;;;-3.21;91.74;99880.83;1867680;75;20475;-44
2021/01/14 07:55:54;;;;;;;;;;;;;;;-3.25;91.47;99867.08;1872256;75;20209;-46
2021/01/14 07:58:24;;;;;;;;;;;;;;;-3.30;91.36;99875.08;1881161;75;20117;-44
2021/01/14 08:01:08;;;;;;;;;;;;;;;-3.30;91.38;99881.89;1868789;75;20138;-45
2021/01/14 08:03:38;;;;;;;;;;;;;;;-3.28;91.35;99884.92;1867135;77;20134;-46
2021/01/14 08:06:29;;;;;;;;;;;;;;;-3.21;91.46;99890.66;1887231;75;20132;-45
2021/01/14 08:09:09;;;;;;;;;;;;;;;-3.17;91.26;99888.19;1885785;75;20162;-46
2021/01/14 08:11:47;;;;;;;;;;;;;;;-3.16;91.19;99895.06;1866104;75;20199;-45
2021/01/14 08:14:18;;;;;;;;;;;;;;;-3.15;91.05;99901.92;1866457;77;20199;-45
2021/01/14 08:16:50;;;;;;;;;;;;;;;-3.16;90.88;99909.16;1874189;75;20140;-46
2021/01/14 08:19:32;;;;;;;;;;;;;;;-3.16;90.95;99913.87;1876680;75;20131;-47
2021/01/14 08:22:05;;;;;;;;;;;;;;;-3.15;90.93;99906.61;1872493;75;20472;-46
2021/01/14 08:24:48;;;;;;;;;;;;;;;-3.12;90.95;99904.13;1869191;75;20205;-46
2021/01/14 08:27:36;;;;;;;;;;;;;;;-3.07;90.85;99914.49;1866967;75;20126;-45
2021/01/14 08:30:07;;;;;;;;;;;;;;;-3.04;90.78;99908.17;1875556;75;20186;-44
2021/01/14 08:32:50;;;;;;;;;;;;;;;-3.00;90.81;99905.72;1866797;75;20140;-46
2021/01/14 08:35:24;;;;;;;;;;;;;;;-2.94;90.83;99908.42;1874263;75;20169;-45
2021/01/14 08:37:54;;;;;;;;;;;;;;;-2.92;90.57;99905.91;1865611;75;20212;-46
2021/01/14 08:40:33;;;;;;;;;;;;;;;-2.91;90.50;99912.77;1871385;75;20179;-47
2021/01/14 08:43:16;;;;;;;;;;;;;;;-2.85;90.41;99913.79;1878777;75;20249;-46
2021/01/14 08:45:47;;;;;;;;;;;;;;;-2.82;90.12;99914.26;1872065;75;20192;-45
2021/01/14 08:48:22;;;;;;;;;;;;;;;-2.89;89.82;99906.83;1880685;75;20199;-46
2021/01/14 08:51:00;;;;;;;;;;;;;;;-2.89;89.80;99906.83;1869912;75;20113;-45
2021/01/14 08:53:37;;;;;;;;;;;;;;;-2.85;89.83;99896.25;1874760;75;20316;-49
2021/01/14 08:56:12;;;;;;;;;;;;;;;-2.80;89.88;99893.38;1853488;75;20160;-44
2021/01/14 08:58:47;;;;;;;;;;;;;;;-2.77;89.70;99896.02;1874195;75;20173;-50
2021/01/14 09:01:19;;;;;;;;;;;;;;;-2.74;89.57;99896.48;1892596;75;20187;-44
2021/01/14 09:03:47;;;;;;;;;;;;;;;-2.70;89.44;99892.77;1867168;75;20173;-45
2021/01/14 09:06:16;;;;;;;;;;;;;;;-2.62;89.37;99897.64;1868959;75;20396;-45
2021/01/14 09:08:49;;;;;;;;;;;;;;;-2.60;89.10;99898.55;1873547;75;20142;-44
2021/01/14 09:11:24;;;;;;;;;;;;;;;-2.61;88.95;99901.08;1856087;75;20128;-44
2021/01/14 09:14:14;;;;;;;;;;;;;;;-2.61;88.94;99896.81;1835293;75;20192;-44
2021/01/14 09:16:45;;;;;;;;;;;;;;;-2.63;88.65;99899.78;1823794;77;20166;-45
2021/01/14 09:19:15;;;;;;;;;;;;;;;-2.61;88.36;99901.95;1831495;77;20603;-45
2021/01/14 09:21:45;;;;;;;;;;;;;;;-2.57;88.09;99899.05;1831420;75;20120;-43
2021/01/14 09:24:15;;;;;;;;;;;;;;;-2.61;87.77;99894.66;1873338;75;20181;-44
2021/01/14 09:26:49;;;;;;;;;;;;;;;-2.65;87.46;99895.44;1807783;75;20218;-46
2021/01/14 09:29:31;;;;;;;;;;;;;;;-2.69;87.21;99896.20;1816706;77;20123;-45
2021/01/14 09:32:15;;;;;;;;;;;;;;;-2.66;87.20;99890.72;1849144;75;20187;-45
2021/01/14 09:34:44;;;;;;;;;;;;;;;-2.61;87.15;99883.12;1874873;75;20196;-44
2021/01/14 09:37:18;;;;;;;;;;;;;;;-2.54;86.97;99886.27;1872504;75;20183;-44
2021/01/14 09:39:46;;;;;;;;;;;;;;;-2.50;86.83;99879.98;1867252;75;20162;-52
2021/01/14 09:42:15;;;;;;;;;;;;;;;-2.48;86.79;99886.00;1867122;75;20168;-46
2021/01/14 09:44:44;;;;;;;;;;;;;;;-2.45;86.66;99889.92;1855867;76;20183;-46
2021/01/14 09:47:12;;;;;;;;;;;;;;;-2.42;86.37;99877.56;1792193;79;20471;-47
2021/01/14 09:49:41;;;;;;;;;;;;;;;-2.42;86.13;99874.99;1818430;78;20182;-44
2021/01/14 09:52:11;;;;;;;;;;;;;;;-2.38;86.03;99882.36;1759810;78;20311;-43
2021/01/14 09:54:40;;;;;;;;;;;;;;;-2.32;86.06;99885.92;1828969;77;20199;-45
2021/01/14 09:57:08;;;;;;;;;;;;;;;-2.25;85.93;99877.52;1790610;78;20172;-45
2021/01/14 09:59:46;;;;;;;;;;;;;;;-2.17;85.86;99871.27;1767698;78;20252;-45
2021/01/14 10:02:36;;;;;;;;;;;;;;;-2.10;85.63;99864.15;1762533;78;20196;-46
2021/01/14 10:05:21;;;;;;;;;;;;;;;-2.13;85.36;99863.66;1812504;78;20232;-47
2021/01/14 10:07:59;;;;;;;;;;;;;;;-2.20;85.15;99860.92;1792432;78;20211;-46
2021/01/14 10:10:27;;;;;;;;;;;;;;;-2.16;85.16;99869.13;1843910;77;20631;-43
2021/01/14 10:12:58;;;;;;;;;;;;;;;-2.10;85.26;99862.41;1814534;77;20235;-45
2021/01/14 10:15:26;;;;;;;;;;;;;;;-2.03;85.13;99860.84;1831353;77;20317;-45
2021/01/14 10:17:54;;;;;;;;;;;;;;;-1.98;85.03;99854.12;1829944;77;20187;-51
2021/01/14 10:20:23;;;;;;;;;;;;;;;-1.94;84.81;99852.46;1835769;77;20184;-46
2021/01/14 10:22:52;;;;;;;;;;;;;;;-1.96;84.71;99851.14;1832899;77;20140;-45
2021/01/14 10:26:48;;;;;;;;;;;;;;;-1.93;84.83;99847.36;1893661;74;20199;-46
2021/01/14 10:29:31;;;;;;;;;;;;;;;-1.98;85.00;99848.98;1856909;75;20189;-44
2021/01/14 10:32:02;;;;;;;;;;;;;;;-1.99;84.93;99847.24;1873014;75;20158;-43
2021/01/14 10:34:42;;;;;;;;;;;;;;;-2.01;84.89;99846.34;1881427;75;20191;-45
2021/01/14 10:37:29;;;;;;;;;;;;;;;-2.08;84.98;99838.06;1891456;75;20286;-45
2021/01/14 10:40:18;;;;;;;;;;;;;;;-2.10;85.05;99853.43;1901281;75;20266;-45
2021/01/14 10:42:49;;;;;;;;;;;;;;;-2.12;85.06;99849.98;1877474;75;20483;-45
2021/01/14 10:45:23;;;;;;;;;;;;;;;-2.12;85.21;99842.28;1871335;75;20143;-45
2021/01/14 10:48:05;;;;;;;;;;;;;;;-2.13;85.14;99850.81;1827096;75;20198;-45
2021/01/14 10:50:33;;;;;;;;;;;;;;;-2.18;85.25;99860.13;1839219;77;20153;-45
2021/01/14 10:53:03;;;;;;;;;;;;;;;-2.16;85.49;99857.16;1821426;78;20183;-49
2021/01/14 10:55:32;;;;;;;;;;;;;;;-2.18;85.37;99863.98;1811738;78;20434;-46
2021/01/14 10:58:03;;;;;;;;;;;;;;;-2.18;85.36;99860.13;1821447;78;20220;-44
2021/01/14 11:00:40;;;;;;;;;;;;;;;-2.16;85.22;99855.00;1822005;78;20889;-45
2021/01/14 11:03:10;;;;;;;;;;;;;;;-2.19;85.09;99849.83;1795478;79;20215;-44
2021/01/14 11:05:47;;;;;;;;;;;;;;;-2.19;84.90;99850.70;1794194;79;20206;-45
2021/01/14 11:08:17;;;;;;;;;;;;;;;-2.18;84.54;99838.31;1814765;78;20152;-44
2021/01/14 11:10:48;;;;;;;;;;;;;;;-2.14;84.33;99840.09;1829955;77;20241;-42
2021/01/14 11:13:16;;;;;;;;;;;;;;;-2.16;84.08;99843.03;1793559;78;20182;-46
2021/01/14 11:15:47;;;;;;;;;;;;;;;-2.16;83.96;99842.17;1802810;78;20163;-44
2021/01/14 11:18:15;;;;;;;;;;;;;;;-2.21;83.50;99841.22;1803498;78;20139;-46
2021/01/14 11:20:43;;;;;;;;;;;;;;;-2.28;83.72;99843.20;1808701;78;20267;-47
2021/01/14 11:23:13;;;;;;;;;;;;;;;-2.27;83.78;99849.66;1805004;78;20196;-44
2021/01/14 11:25:42;;;;;;;;;;;;;;;-2.24;83.57;99850.16;1804366;78;20204;-45
2021/01/14 11:28:10;;;;;;;;;;;;;;;-2.21;83.32;99842.08;1802074;78;20187;-45
2021/01/14 11:30:38;;;;;;;;;;;;;;;-2.21;82.96;99842.08;1810179;78;20180;-44
2021/01/14 11:33:07;;;;;;;;;;;;;;;-2.18;82.89;99838.73;1767604;78;20228;-45
2021/01/14 11:35:35;;;;;;;;;;;;;;;-2.16;82.86;99845.60;1811122;78;20467;-45
2021/01/14 11:38:15;;;;;;;;;;;;;;;-2.14;82.73;99841.37;1790312;77;20177;-44
2021/01/14 11:41:21;;;;;;;;;;;;;;;-2.15;82.72;99840.92;1783688;77;20294;-44
2021/01/14 11:43:48;;;;;;;;;;;;;;;-2.22;82.41;99845.48;1829821;77;20198;-44
2021/01/14 11:46:24;;;;;;;;;;;;;;;-2.24;82.25;99845.89;1795765;78;20189;-43
2021/01/14 11:48:48;;;;;;;;;;;;;;;-2.28;82.19;99849.20;1814901;78;20283;-44
2021/01/14 11:51:16;;;;;;;;;;;;;;;-2.30;82.21;99843.20;1838383;77;20148;-45
2021/01/14 11:53:45;;;;;;;;;;;;;;;-2.28;82.40;99844.48;1832699;77;20277;-45
2021/01/14 11:56:14;;;;;;;;;;;;;;;-2.26;82.51;99843.70;1796135;79;20484;-44
2021/01/14 11:58:42;;;;;;;;;;;;;;;-2.21;82.61;99843.37;1811445;78;20208;-43
2021/01/14 12:01:10;;;;;;;;;;;;;;;-2.21;82.43;99842.08;1833683;77;20214;-45
2021/01/14 12:03:42;;;;;;;;;;;;;;;-2.24;82.45;99842.04;1794949;79;20297;-46
2021/01/14 12:06:11;;;;;;;;;;;;;;;-2.28;82.39;99840.22;1814401;78;20212;-45
2021/01/14 12:08:39;;;;;;;;;;;;;;;-2.29;82.45;99840.19;1829729;77;20176;-45
2021/01/14 12:11:08;;;;;;;;;;;;;;;-2.33;82.49;99838.40;1832671;77;20133;-44
2021/01/14 12:13:36;;;;;;;;;;;;;;;-2.35;82.53;99849.05;1836436;77;20393;-46
2021/01/14 12:16:05;;;;;;;;;;;;;;;-2.32;82.64;99845.27;1828802;77;20216;-46
2021/01/14 12:18:33;;;;;;;;;;;;;;;-2.31;82.67;99842.75;1832838;77;20449;-45
2021/01/14 12:21:01;;;;;;;;;;;;;;;-2.26;82.75;99845.40;1836462;77;20196;-45
2021/01/14 12:23:30;;;;;;;;;;;;;;;-2.27;82.49;99847.51;1831530;77;20274;-45
2021/01/14 12:26:01;;;;;;;;;;;;;;;-2.28;82.38;99856.04;1808643;77;20224;-44
2021/01/14 12:28:31;;;;;;;;;;;;;;;-2.24;82.34;99858.73;1804490;77;20162;-45
2021/01/14 12:31:02;;;;;;;;;;;;;;;-2.20;82.16;99858.36;1793205;77;20269;-46
2021/01/14 12:33:31;;;;;;;;;;;;;;;-2.19;81.87;99868.66;1794661;77;20217;-46
2021/01/14 12:36:03;;;;;;;;;;;;;;;-2.20;81.77;99870.78;1794841;79;20205;-45
2021/01/14 12:38:31;;;;;;;;;;;;;;;-2.22;81.71;99880.14;1785113;77;20143;-43
2021/01/14 12:40:59;;;;;;;;;;;;;;;-2.20;81.90;99877.20;1767204;77;20123;-45
2021/01/14 12:43:27;;;;;;;;;;;;;;;-2.16;82.12;99878.11;1832520;77;20273;-46
2021/01/14 12:45:55;;;;;;;;;;;;;;;-2.17;82.11;99880.26;1828006;77;20172;-45
2021/01/14 12:48:25;;;;;;;;;;;;;;;-2.18;82.16;99882.38;1830354;77;20203;-45
2021/01/14 12:50:54;;;;;;;;;;;;;;;-2.17;82.06;99877.69;1832197;77;20209;-46
2021/01/14 12:53:25;;;;;;;;;;;;;;;-2.19;82.02;99871.23;1804286;77;20271;-44
2021/01/14 12:55:53;;;;;;;;;;;;;;;-2.21;82.15;99869.45;1806166;77;20487;-45
2021/01/14 12:58:21;;;;;;;;;;;;;;;-2.22;82.28;99872.85;1825270;77;20207;-46
2021/01/14 13:00:49;;;;;;;;;;;;;;;-2.26;82.39;99870.66;1827079;77;20702;-44
2021/01/14 13:03:20;;;;;;;;;;;;;;;-2.24;82.55;99869.41;1826053;77;20387;-44
2021/01/14 13:05:54;;;;;;;;;;;;;;;-2.24;82.68;99874.55;1833194;77;20196;-45
2021/01/14 13:08:25;;;;;;;;;;;;;;;-2.23;82.79;99877.12;1815617;77;20151;-47
2021/01/14 13:10:59;;;;;;;;;;;;;;;-2.22;82.96;99885.69;1775047;79;20462;-48
2021/01/14 13:13:27;;;;;;;;;;;;;;;-2.23;83.03;99878.84;1796329;79;20446;-45